sensor_id;sensor_type;location;lat;lon;timestamp;P1;durP1;ratioP1;P2;durP2;ratioP2
22665;SDS011;11499;49.486;11.104;2023-03-01T00:01:41;10.17;;;7.73;;
22665;SDS011;11499;49.486;11.104;2023-03-01T00:04:07;11.70;;;8.67;;
22665;SDS011;11499;49.486;11.104;2023-03-01T00:06:32;9.37;;;7.83;;
22665;SDS011;11499;49.486;11.104;2023-03-01T00:08:58;10.40;;;8.03;;
22665;SDS011;11499;49.486;11.104;2023-03-01T00:11:28;9.33;;;8.10;;
22665;SDS011;11499;49.486;11.104;2023-03-01T00:13:55;10.03;;;7.83;;
22665;SDS011;11499;49.486;11.104;2023-03-01T00:16:24;11.23;;;8.30;;
22665;SDS011;11499;49.486;11.104;2023-03-01T00:18:56;11.63;;;8.23;;
22665;SDS011;11499;49.486;11.104;2023-03-01T00:24:33;10.33;;;8.30;;
22665;SDS011;11499;49.486;11.104;2023-03-01T00:26:58;10.23;;;8.27;;
22665;SDS011;11499;49.486;11.104;2023-03-01T00:29:24;10.10;;;7.73;;
22665;SDS011;11499;49.486;11.104;2023-03-01T00:31:50;11.30;;;8.33;;
22665;SDS011;11499;49.486;11.104;2023-03-01T00:34:15;10.17;;;8.00;;
22665;SDS011;11499;49.486;11.104;2023-03-01T00:36:41;9.33;;;7.90;;
22665;SDS011;11499;49.486;11.104;2023-03-01T00:39:09;10.13;;;7.80;;
22665;SDS011;11499;49.486;11.104;2023-03-01T00:41:37;11.90;;;8.33;;
22665;SDS011;11499;49.486;11.104;2023-03-01T00:44:02;9.60;;;8.17;;
22665;SDS011;11499;49.486;11.104;2023-03-01T00:46:28;10.10;;;8.43;;
22665;SDS011;11499;49.486;11.104;2023-03-01T00:51:36;11.63;;;8.70;;
22665;SDS011;11499;49.486;11.104;2023-03-01T00:54:02;8.80;;;7.67;;
22665;SDS011;11499;49.486;11.104;2023-03-01T00:56:28;10.70;;;8.53;;
22665;SDS011;11499;49.486;11.104;2023-03-01T00:58:54;9.63;;;8.60;;
22665;SDS011;11499;49.486;11.104;2023-03-01T01:01:21;10.83;;;8.73;;
22665;SDS011;11499;49.486;11.104;2023-03-01T01:06:19;11.07;;;8.47;;
22665;SDS011;11499;49.486;11.104;2023-03-01T01:08:53;13.00;;;8.90;;
22665;SDS011;11499;49.486;11.104;2023-03-01T01:11:20;11.37;;;9.13;;
22665;SDS011;11499;49.486;11.104;2023-03-01T01:13:46;12.43;;;8.90;;
22665;SDS011;11499;49.486;11.104;2023-03-01T01:16:13;12.40;;;8.70;;
22665;SDS011;11499;49.486;11.104;2023-03-01T01:21:49;10.07;;;8.13;;
22665;SDS011;11499;49.486;11.104;2023-03-01T01:24:14;12.87;;;8.97;;
22665;SDS011;11499;49.486;11.104;2023-03-01T01:26:41;11.33;;;8.30;;
22665;SDS011;11499;49.486;11.104;2023-03-01T01:29:07;10.77;;;8.87;;
22665;SDS011;11499;49.486;11.104;2023-03-01T01:31:33;10.07;;;8.50;;
22665;SDS011;11499;49.486;11.104;2023-03-01T01:34:01;12.27;;;9.00;;
22665;SDS011;11499;49.486;11.104;2023-03-01T01:36:27;10.33;;;8.13;;
22665;SDS011;11499;49.486;11.104;2023-03-01T01:38:53;11.87;;;8.93;;
22665;SDS011;11499;49.486;11.104;2023-03-01T01:41:19;11.10;;;8.63;;
22665;SDS011;11499;49.486;11.104;2023-03-01T01:43:47;11.03;;;8.23;;
22665;SDS011;11499;49.486;11.104;2023-03-01T01:49:00;11.70;;;9.10;;
22665;SDS011;11499;49.486;11.104;2023-03-01T01:51:31;11.40;;;8.47;;
22665;SDS011;11499;49.486;11.104;2023-03-01T01:54:03;11.53;;;8.87;;
22665;SDS011;11499;49.486;11.104;2023-03-01T01:56:34;10.77;;;8.80;;
22665;SDS011;11499;49.486;11.104;2023-03-01T01:59:01;12.97;;;8.90;;
22665;SDS011;11499;49.486;11.104;2023-03-01T02:01:27;11.57;;;8.93;;
22665;SDS011;11499;49.486;11.104;2023-03-01T02:03:52;10.73;;;8.63;;
22665;SDS011;11499;49.486;11.104;2023-03-01T02:06:20;10.80;;;8.33;;
22665;SDS011;11499;49.486;11.104;2023-03-01T02:08:53;11.57;;;8.17;;
22665;SDS011;11499;49.486;11.104;2023-03-01T02:11:22;12.80;;;10.00;;
22665;SDS011;11499;49.486;11.104;2023-03-01T02:16:23;10.83;;;8.33;;
22665;SDS011;11499;49.486;11.104;2023-03-01T02:18:50;11.53;;;8.67;;
22665;SDS011;11499;49.486;11.104;2023-03-01T02:21:20;10.80;;;8.30;;
22665;SDS011;11499;49.486;11.104;2023-03-01T02:24:01;11.53;;;8.90;;
22665;SDS011;11499;49.486;11.104;2023-03-01T02:26:37;13.23;;;9.60;;
22665;SDS011;11499;49.486;11.104;2023-03-01T02:29:09;12.30;;;8.23;;
22665;SDS011;11499;49.486;11.104;2023-03-01T02:31:35;13.40;;;8.67;;
22665;SDS011;11499;49.486;11.104;2023-03-01T02:34:07;11.60;;;8.53;;
22665;SDS011;11499;49.486;11.104;2023-03-01T02:36:43;12.47;;;9.03;;
22665;SDS011;11499;49.486;11.104;2023-03-01T02:39:20;12.60;;;9.33;;
22665;SDS011;11499;49.486;11.104;2023-03-01T02:44:09;10.90;;;8.63;;
22665;SDS011;11499;49.486;11.104;2023-03-01T02:46:41;12.47;;;8.97;;
22665;SDS011;11499;49.486;11.104;2023-03-01T02:49:19;11.07;;;8.43;;
22665;SDS011;11499;49.486;11.104;2023-03-01T02:54:47;11.00;;;8.63;;
22665;SDS011;11499;49.486;11.104;2023-03-01T02:57:15;11.17;;;8.57;;
22665;SDS011;11499;49.486;11.104;2023-03-01T02:59:40;11.57;;;8.87;;
22665;SDS011;11499;49.486;11.104;2023-03-01T03:02:08;11.60;;;9.13;;
22665;SDS011;11499;49.486;11.104;2023-03-01T03:05:02;11.97;;;8.37;;
22665;SDS011;11499;49.486;11.104;2023-03-01T03:10:35;12.47;;;8.93;;
22665;SDS011;11499;49.486;11.104;2023-03-01T03:13:04;11.70;;;8.50;;
22665;SDS011;11499;49.486;11.104;2023-03-01T03:15:32;11.43;;;8.90;;
22665;SDS011;11499;49.486;11.104;2023-03-01T03:18:01;11.80;;;8.77;;
22665;SDS011;11499;49.486;11.104;2023-03-01T03:20:28;10.60;;;8.77;;
22665;SDS011;11499;49.486;11.104;2023-03-01T03:22:55;11.83;;;8.30;;
22665;SDS011;11499;49.486;11.104;2023-03-01T03:25:22;12.83;;;8.43;;
22665;SDS011;11499;49.486;11.104;2023-03-01T03:27:48;11.60;;;8.83;;
22665;SDS011;11499;49.486;11.104;2023-03-01T03:30:21;11.43;;;8.47;;
22665;SDS011;11499;49.486;11.104;2023-03-01T03:32:48;11.07;;;8.43;;
22665;SDS011;11499;49.486;11.104;2023-03-01T03:37:47;13.33;;;9.17;;
22665;SDS011;11499;49.486;11.104;2023-03-01T03:40:41;12.50;;;8.97;;
22665;SDS011;11499;49.486;11.104;2023-03-01T03:43:10;13.80;;;9.60;;
22665;SDS011;11499;49.486;11.104;2023-03-01T03:45:37;11.40;;;8.50;;
22665;SDS011;11499;49.486;11.104;2023-03-01T03:48:03;13.10;;;9.47;;
22665;SDS011;11499;49.486;11.104;2023-03-01T03:50:31;13.03;;;9.60;;
22665;SDS011;11499;49.486;11.104;2023-03-01T03:52:57;11.20;;;8.70;;
22665;SDS011;11499;49.486;11.104;2023-03-01T03:55:22;11.13;;;8.90;;
22665;SDS011;11499;49.486;11.104;2023-03-01T03:57:52;11.53;;;8.30;;
22665;SDS011;11499;49.486;11.104;2023-03-01T04:00:19;11.27;;;8.50;;
22665;SDS011;11499;49.486;11.104;2023-03-01T04:04:33;13.30;;;8.77;;
22665;SDS011;11499;49.486;11.104;2023-03-01T04:06:59;11.20;;;9.00;;
22665;SDS011;11499;49.486;11.104;2023-03-01T04:09:24;13.30;;;9.60;;
22665;SDS011;11499;49.486;11.104;2023-03-01T04:11:50;9.13;;;8.13;;
22665;SDS011;11499;49.486;11.104;2023-03-01T04:14:15;13.13;;;8.53;;
22665;SDS011;11499;49.486;11.104;2023-03-01T04:16:41;11.43;;;8.47;;
22665;SDS011;11499;49.486;11.104;2023-03-01T04:19:06;11.90;;;8.93;;
22665;SDS011;11499;49.486;11.104;2023-03-01T04:21:32;10.70;;;8.57;;
22665;SDS011;11499;49.486;11.104;2023-03-01T04:23:57;11.30;;;8.90;;
22665;SDS011;11499;49.486;11.104;2023-03-01T04:26:23;13.87;;;8.53;;
22665;SDS011;11499;49.486;11.104;2023-03-01T04:31:31;13.13;;;9.47;;
22665;SDS011;11499;49.486;11.104;2023-03-01T04:33:57;13.70;;;9.23;;
22665;SDS011;11499;49.486;11.104;2023-03-01T04:36:23;14.10;;;9.63;;
22665;SDS011;11499;49.486;11.104;2023-03-01T04:38:51;12.60;;;9.07;;
22665;SDS011;11499;49.486;11.104;2023-03-01T04:41:17;13.57;;;9.33;;
22665;SDS011;11499;49.486;11.104;2023-03-01T04:43:44;12.47;;;9.63;;
22665;SDS011;11499;49.486;11.104;2023-03-01T04:46:13;11.90;;;9.10;;
22665;SDS011;11499;49.486;11.104;2023-03-01T04:48:40;14.00;;;9.47;;
22665;SDS011;11499;49.486;11.104;2023-03-01T04:51:07;22.73;;;13.50;;
22665;SDS011;11499;49.486;11.104;2023-03-01T04:53:33;23.83;;;14.10;;
22665;SDS011;11499;49.486;11.104;2023-03-01T04:58:40;18.03;;;14.17;;
22665;SDS011;11499;49.486;11.104;2023-03-01T05:01:14;18.43;;;12.73;;
22665;SDS011;11499;49.486;11.104;2023-03-01T05:03:45;19.87;;;13.50;;
22665;SDS011;11499;49.486;11.104;2023-03-01T05:06:12;12.97;;;10.73;;
22665;SDS011;11499;49.486;11.104;2023-03-01T05:08:38;20.43;;;13.20;;
22665;SDS011;11499;49.486;11.104;2023-03-01T05:11:04;14.00;;;10.90;;
22665;SDS011;11499;49.486;11.104;2023-03-01T05:13:31;13.50;;;10.30;;
22665;SDS011;11499;49.486;11.104;2023-03-01T05:15:58;13.97;;;11.33;;
22665;SDS011;11499;49.486;11.104;2023-03-01T05:18:25;13.27;;;10.80;;
22665;SDS011;11499;49.486;11.104;2023-03-01T05:20:53;16.57;;;11.13;;
22665;SDS011;11499;49.486;11.104;2023-03-01T05:25:08;18.47;;;12.60;;
22665;SDS011;11499;49.486;11.104;2023-03-01T05:27:34;13.67;;;10.60;;
22665;SDS011;11499;49.486;11.104;2023-03-01T05:30:00;12.30;;;9.10;;
22665;SDS011;11499;49.486;11.104;2023-03-01T05:32:38;14.67;;;10.13;;
22665;SDS011;11499;49.486;11.104;2023-03-01T05:35:05;16.00;;;10.73;;
22665;SDS011;11499;49.486;11.104;2023-03-01T05:37:30;19.27;;;13.07;;
22665;SDS011;11499;49.486;11.104;2023-03-01T05:39:56;15.97;;;10.93;;
22665;SDS011;11499;49.486;11.104;2023-03-01T05:42:21;15.43;;;11.67;;
22665;SDS011;11499;49.486;11.104;2023-03-01T05:44:47;15.00;;;10.93;;
22665;SDS011;11499;49.486;11.104;2023-03-01T05:47:12;12.67;;;10.07;;
22665;SDS011;11499;49.486;11.104;2023-03-01T05:52:15;12.53;;;9.50;;
22665;SDS011;11499;49.486;11.104;2023-03-01T05:54:40;14.17;;;9.73;;
22665;SDS011;11499;49.486;11.104;2023-03-01T05:57:06;14.67;;;10.80;;
22665;SDS011;11499;49.486;11.104;2023-03-01T05:59:31;13.53;;;10.67;;
22665;SDS011;11499;49.486;11.104;2023-03-01T06:01:57;12.83;;;10.10;;
22665;SDS011;11499;49.486;11.104;2023-03-01T06:04:22;15.70;;;11.03;;
22665;SDS011;11499;49.486;11.104;2023-03-01T06:06:48;12.80;;;10.07;;
22665;SDS011;11499;49.486;11.104;2023-03-01T06:09:13;11.87;;;9.93;;
22665;SDS011;11499;49.486;11.104;2023-03-01T06:11:39;16.33;;;10.97;;
22665;SDS011;11499;49.486;11.104;2023-03-01T06:14:05;13.43;;;10.17;;
22665;SDS011;11499;49.486;11.104;2023-03-01T06:18:45;14.50;;;9.87;;
22665;SDS011;11499;49.486;11.104;2023-03-01T06:21:10;13.53;;;9.07;;
22665;SDS011;11499;49.486;11.104;2023-03-01T06:23:36;14.33;;;10.43;;
22665;SDS011;11499;49.486;11.104;2023-03-01T06:26:05;13.90;;;10.37;;
22665;SDS011;11499;49.486;11.104;2023-03-01T06:28:31;13.83;;;9.87;;
22665;SDS011;11499;49.486;11.104;2023-03-01T06:30:57;13.93;;;9.63;;
22665;SDS011;11499;49.486;11.104;2023-03-01T06:33:22;11.80;;;9.70;;
22665;SDS011;11499;49.486;11.104;2023-03-01T06:35:49;14.03;;;10.30;;
22665;SDS011;11499;49.486;11.104;2023-03-01T06:38:15;20.70;;;13.13;;
22665;SDS011;11499;49.486;11.104;2023-03-01T06:40:43;18.30;;;11.80;;
22665;SDS011;11499;49.486;11.104;2023-03-01T06:45:46;23.10;;;13.97;;
22665;SDS011;11499;49.486;11.104;2023-03-01T06:48:11;16.90;;;11.60;;
22665;SDS011;11499;49.486;11.104;2023-03-01T06:50:37;14.87;;;10.57;;
22665;SDS011;11499;49.486;11.104;2023-03-01T06:53:03;12.57;;;9.57;;
22665;SDS011;11499;49.486;11.104;2023-03-01T06:55:29;14.83;;;10.53;;
22665;SDS011;11499;49.486;11.104;2023-03-01T06:57:55;15.40;;;10.30;;
22665;SDS011;11499;49.486;11.104;2023-03-01T07:00:22;11.97;;;9.37;;
22665;SDS011;11499;49.486;11.104;2023-03-01T07:02:48;10.67;;;9.20;;
22665;SDS011;11499;49.486;11.104;2023-03-01T07:05:14;15.63;;;9.23;;
22665;SDS011;11499;49.486;11.104;2023-03-01T07:07:40;10.87;;;8.97;;
22665;SDS011;11499;49.486;11.104;2023-03-01T07:12:54;14.77;;;10.23;;
22665;SDS011;11499;49.486;11.104;2023-03-01T07:15:20;12.10;;;9.60;;
22665;SDS011;11499;49.486;11.104;2023-03-01T07:17:46;11.23;;;9.73;;
22665;SDS011;11499;49.486;11.104;2023-03-01T07:20:12;12.13;;;9.80;;
22665;SDS011;11499;49.486;11.104;2023-03-01T07:22:41;13.00;;;9.30;;
22665;SDS011;11499;49.486;11.104;2023-03-01T07:25:07;12.37;;;9.70;;
22665;SDS011;11499;49.486;11.104;2023-03-01T07:27:34;11.30;;;9.43;;
22665;SDS011;11499;49.486;11.104;2023-03-01T07:29:59;12.20;;;9.37;;
22665;SDS011;11499;49.486;11.104;2023-03-01T07:32:25;10.87;;;9.20;;
22665;SDS011;11499;49.486;11.104;2023-03-01T07:34:51;13.30;;;9.80;;
22665;SDS011;11499;49.486;11.104;2023-03-01T07:37:16;14.33;;;10.50;;
22665;SDS011;11499;49.486;11.104;2023-03-01T07:39:42;13.20;;;9.90;;
22665;SDS011;11499;49.486;11.104;2023-03-01T07:44:11;11.37;;;9.57;;
22665;SDS011;11499;49.486;11.104;2023-03-01T07:46:36;11.37;;;9.37;;
22665;SDS011;11499;49.486;11.104;2023-03-01T07:49:02;13.93;;;9.77;;
22665;SDS011;11499;49.486;11.104;2023-03-01T07:51:27;13.67;;;10.20;;
22665;SDS011;11499;49.486;11.104;2023-03-01T07:53:53;12.20;;;9.90;;
22665;SDS011;11499;49.486;11.104;2023-03-01T07:56:18;11.97;;;9.70;;
22665;SDS011;11499;49.486;11.104;2023-03-01T07:58:44;13.13;;;10.20;;
22665;SDS011;11499;49.486;11.104;2023-03-01T08:01:11;12.93;;;9.87;;
22665;SDS011;11499;49.486;11.104;2023-03-01T08:03:38;14.70;;;11.03;;
22665;SDS011;11499;49.486;11.104;2023-03-01T08:06:05;13.67;;;10.20;;
22665;SDS011;11499;49.486;11.104;2023-03-01T08:11:14;12.37;;;9.83;;
22665;SDS011;11499;49.486;11.104;2023-03-01T08:13:41;12.43;;;9.80;;
22665;SDS011;11499;49.486;11.104;2023-03-01T08:16:09;13.40;;;9.90;;
22665;SDS011;11499;49.486;11.104;2023-03-01T08:18:37;13.80;;;10.40;;
22665;SDS011;11499;49.486;11.104;2023-03-01T08:21:06;13.37;;;9.63;;
22665;SDS011;11499;49.486;11.104;2023-03-01T08:23:36;13.17;;;10.10;;
22665;SDS011;11499;49.486;11.104;2023-03-01T08:26:11;12.17;;;9.90;;
22665;SDS011;11499;49.486;11.104;2023-03-01T08:28:41;13.10;;;10.00;;
22665;SDS011;11499;49.486;11.104;2023-03-01T08:31:18;12.30;;;9.43;;
22665;SDS011;11499;49.486;11.104;2023-03-01T08:33:45;12.93;;;9.87;;
22665;SDS011;11499;49.486;11.104;2023-03-01T08:38:14;14.60;;;10.93;;
22665;SDS011;11499;49.486;11.104;2023-03-01T08:40:40;11.60;;;10.10;;
22665;SDS011;11499;49.486;11.104;2023-03-01T08:43:05;14.17;;;10.20;;
22665;SDS011;11499;49.486;11.104;2023-03-01T08:45:31;13.10;;;10.73;;
22665;SDS011;11499;49.486;11.104;2023-03-01T08:47:56;12.90;;;10.37;;
22665;SDS011;11499;49.486;11.104;2023-03-01T08:50:22;14.53;;;10.60;;
22665;SDS011;11499;49.486;11.104;2023-03-01T08:52:49;15.70;;;10.30;;
22665;SDS011;11499;49.486;11.104;2023-03-01T08:55:15;12.03;;;9.90;;
22665;SDS011;11499;49.486;11.104;2023-03-01T08:57:42;11.47;;;10.23;;
22665;SDS011;11499;49.486;11.104;2023-03-01T09:00:08;14.67;;;10.67;;
22665;SDS011;11499;49.486;11.104;2023-03-01T09:05:24;13.43;;;11.07;;
22665;SDS011;11499;49.486;11.104;2023-03-01T09:07:50;12.60;;;10.73;;
22665;SDS011;11499;49.486;11.104;2023-03-01T09:10:15;15.00;;;10.60;;
22665;SDS011;11499;49.486;11.104;2023-03-01T09:12:41;11.77;;;9.60;;
22665;SDS011;11499;49.486;11.104;2023-03-01T09:15:07;12.77;;;10.65;;
22665;SDS011;11499;49.486;11.104;2023-03-01T09:17:33;12.57;;;10.10;;
22665;SDS011;11499;49.486;11.104;2023-03-01T09:19:58;12.07;;;10.00;;
22665;SDS011;11499;49.486;11.104;2023-03-01T09:22:24;14.85;;;11.50;;
22665;SDS011;11499;49.486;11.104;2023-03-01T09:24:50;12.63;;;10.20;;
22665;SDS011;11499;49.486;11.104;2023-03-01T09:27:15;12.83;;;10.03;;
22665;SDS011;11499;49.486;11.104;2023-03-01T09:29:43;13.10;;;10.80;;
22665;SDS011;11499;49.486;11.104;2023-03-01T09:34:06;14.10;;;10.67;;
22665;SDS011;11499;49.486;11.104;2023-03-01T09:36:32;15.80;;;10.70;;
22665;SDS011;11499;49.486;11.104;2023-03-01T09:38:58;12.30;;;9.53;;
22665;SDS011;11499;49.486;11.104;2023-03-01T09:41:44;12.70;;;10.03;;
22665;SDS011;11499;49.486;11.104;2023-03-01T09:44:16;12.90;;;11.60;;
22665;SDS011;11499;49.486;11.104;2023-03-01T09:46:50;13.10;;;11.80;;
22665;SDS011;11499;49.486;11.104;2023-03-01T09:49:18;11.27;;;10.07;;
22665;SDS011;11499;49.486;11.104;2023-03-01T09:51:57;11.47;;;9.30;;
22665;SDS011;11499;49.486;11.104;2023-03-01T09:54:44;13.03;;;9.93;;
22665;SDS011;11499;49.486;11.104;2023-03-01T09:57:15;12.63;;;9.77;;
22665;SDS011;11499;49.486;11.104;2023-03-01T10:04:18;12.47;;;10.33;;
22665;SDS011;11499;49.486;11.104;2023-03-01T10:09:34;12.97;;;10.30;;
22665;SDS011;11499;49.486;11.104;2023-03-01T10:12:02;14.57;;;9.50;;
22665;SDS011;11499;49.486;11.104;2023-03-01T10:17:30;12.97;;;10.50;;
22665;SDS011;11499;49.486;11.104;2023-03-01T10:20:14;15.07;;;10.50;;
22665;SDS011;11499;49.486;11.104;2023-03-01T10:22:42;13.33;;;10.20;;
22665;SDS011;11499;49.486;11.104;2023-03-01T10:27:20;11.70;;;9.17;;
22665;SDS011;11499;49.486;11.104;2023-03-01T10:29:50;11.90;;;9.67;;
22665;SDS011;11499;49.486;11.104;2023-03-01T10:32:31;11.67;;;9.73;;
22665;SDS011;11499;49.486;11.104;2023-03-01T10:34:57;12.27;;;9.77;;
22665;SDS011;11499;49.486;11.104;2023-03-01T10:37:23;13.23;;;10.00;;
22665;SDS011;11499;49.486;11.104;2023-03-01T10:39:56;12.40;;;10.23;;
22665;SDS011;11499;49.486;11.104;2023-03-01T10:42:30;11.57;;;9.97;;
22665;SDS011;11499;49.486;11.104;2023-03-01T10:44:58;12.50;;;10.73;;
22665;SDS011;11499;49.486;11.104;2023-03-01T10:50:48;12.60;;;10.60;;
22665;SDS011;11499;49.486;11.104;2023-03-01T10:54:33;11.60;;;9.67;;
22665;SDS011;11499;49.486;11.104;2023-03-01T10:57:00;12.30;;;9.83;;
22665;SDS011;11499;49.486;11.104;2023-03-01T11:04:34;12.20;;;10.07;;
22665;SDS011;11499;49.486;11.104;2023-03-01T11:07:00;13.30;;;10.07;;
22665;SDS011;11499;49.486;11.104;2023-03-01T11:09:30;13.47;;;9.33;;
22665;SDS011;11499;49.486;11.104;2023-03-01T11:12:02;14.60;;;10.63;;
22665;SDS011;11499;49.486;11.104;2023-03-01T11:14:35;11.30;;;8.83;;
22665;SDS011;11499;49.486;11.104;2023-03-01T11:21:04;11.90;;;9.67;;
22665;SDS011;11499;49.486;11.104;2023-03-01T11:23:33;13.43;;;9.87;;
22665;SDS011;11499;49.486;11.104;2023-03-01T11:26:02;12.93;;;10.40;;
22665;SDS011;11499;49.486;11.104;2023-03-01T11:28:31;11.47;;;9.50;;
22665;SDS011;11499;49.486;11.104;2023-03-01T11:31:07;10.47;;;8.90;;
22665;SDS011;11499;49.486;11.104;2023-03-01T11:33:53;12.67;;;9.30;;
22665;SDS011;11499;49.486;11.104;2023-03-01T11:39:03;11.33;;;9.10;;
22665;SDS011;11499;49.486;11.104;2023-03-01T11:41:56;11.27;;;9.00;;
22665;SDS011;11499;49.486;11.104;2023-03-01T11:46:58;13.97;;;9.80;;
22665;SDS011;11499;49.486;11.104;2023-03-01T12:06:26;11.43;;;8.53;;
22665;SDS011;11499;49.486;11.104;2023-03-01T12:12:28;10.23;;;8.77;;
22665;SDS011;11499;49.486;11.104;2023-03-01T12:26:33;9.93;;;8.17;;
22665;SDS011;11499;49.486;11.104;2023-03-01T12:39:54;11.00;;;9.82;;
22665;SDS011;11499;49.486;11.104;2023-03-01T12:43:00;11.48;;;10.38;;
22665;SDS011;11499;49.486;11.104;2023-03-01T12:45:48;11.93;;;10.52;;
22665;SDS011;11499;49.486;11.104;2023-03-01T12:48:31;10.03;;;7.83;;
22665;SDS011;11499;49.486;11.104;2023-03-01T12:51:05;10.98;;;9.25;;
22665;SDS011;11499;49.486;11.104;2023-03-01T12:53:36;10.35;;;9.30;;
22665;SDS011;11499;49.486;11.104;2023-03-01T12:56:09;11.00;;;8.70;;
22665;SDS011;11499;49.486;11.104;2023-03-01T12:58:42;10.67;;;8.20;;
22665;SDS011;11499;49.486;11.104;2023-03-01T13:02:41;9.37;;;8.07;;
22665;SDS011;11499;49.486;11.104;2023-03-01T13:08:01;10.97;;;8.53;;
22665;SDS011;11499;49.486;11.104;2023-03-01T13:10:47;12.97;;;9.07;;
22665;SDS011;11499;49.486;11.104;2023-03-01T13:13:22;13.93;;;9.33;;
22665;SDS011;11499;49.486;11.104;2023-03-01T13:15:48;11.73;;;9.23;;
22665;SDS011;11499;49.486;11.104;2023-03-01T13:28:50;9.68;;;8.45;;
22665;SDS011;11499;49.486;11.104;2023-03-01T13:33:53;9.00;;;7.17;;
22665;SDS011;11499;49.486;11.104;2023-03-01T13:39:20;11.57;;;7.70;;
22665;SDS011;11499;49.486;11.104;2023-03-01T13:42:03;10.30;;;7.77;;
22665;SDS011;11499;49.486;11.104;2023-03-01T13:44:54;9.93;;;7.73;;
22665;SDS011;11499;49.486;11.104;2023-03-01T13:47:20;11.17;;;8.07;;
22665;SDS011;11499;49.486;11.104;2023-03-01T13:49:47;9.67;;;8.20;;
22665;SDS011;11499;49.486;11.104;2023-03-01T13:54:53;9.67;;;8.67;;
22665;SDS011;11499;49.486;11.104;2023-03-01T13:57:21;10.77;;;9.10;;
22665;SDS011;11499;49.486;11.104;2023-03-01T13:59:50;11.23;;;8.53;;
22665;SDS011;11499;49.486;11.104;2023-03-01T14:02:16;12.13;;;10.13;;
22665;SDS011;11499;49.486;11.104;2023-03-01T14:04:42;9.50;;;8.47;;
22665;SDS011;11499;49.486;11.104;2023-03-01T14:07:08;12.47;;;9.37;;
22665;SDS011;11499;49.486;11.104;2023-03-01T14:09:43;11.13;;;8.77;;
22665;SDS011;11499;49.486;11.104;2023-03-01T14:15:22;10.40;;;8.40;;
22665;SDS011;11499;49.486;11.104;2023-03-01T14:20:46;11.20;;;9.30;;
22665;SDS011;11499;49.486;11.104;2023-03-01T14:23:17;12.30;;;9.87;;
22665;SDS011;11499;49.486;11.104;2023-03-01T14:25:50;10.03;;;9.03;;
22665;SDS011;11499;49.486;11.104;2023-03-01T14:28:19;10.23;;;8.87;;
22665;SDS011;11499;49.486;11.104;2023-03-01T14:30:50;9.43;;;8.43;;
22665;SDS011;11499;49.486;11.104;2023-03-01T14:33:24;10.20;;;8.10;;
22665;SDS011;11499;49.486;11.104;2023-03-01T14:35:59;10.07;;;8.50;;
22665;SDS011;11499;49.486;11.104;2023-03-01T14:41:00;11.53;;;9.30;;
22665;SDS011;11499;49.486;11.104;2023-03-01T14:43:29;12.90;;;8.53;;
22665;SDS011;11499;49.486;11.104;2023-03-01T14:48:00;9.87;;;8.03;;
22665;SDS011;11499;49.486;11.104;2023-03-01T14:50:32;9.33;;;7.77;;
22665;SDS011;11499;49.486;11.104;2023-03-01T14:53:01;9.67;;;8.40;;
22665;SDS011;11499;49.486;11.104;2023-03-01T14:55:30;9.00;;;7.90;;
22665;SDS011;11499;49.486;11.104;2023-03-01T14:57:59;10.40;;;9.32;;
22665;SDS011;11499;49.486;11.104;2023-03-01T15:00:28;9.03;;;8.13;;
22665;SDS011;11499;49.486;11.104;2023-03-01T15:02:57;10.23;;;8.20;;
22665;SDS011;11499;49.486;11.104;2023-03-01T15:07:58;11.67;;;7.73;;
22665;SDS011;11499;49.486;11.104;2023-03-01T15:10:26;10.52;;;8.88;;
22665;SDS011;11499;49.486;11.104;2023-03-01T15:12:54;9.13;;;7.83;;
22665;SDS011;11499;49.486;11.104;2023-03-01T15:16:48;10.07;;;8.10;;
22665;SDS011;11499;49.486;11.104;2023-03-01T15:19:15;9.87;;;7.33;;
22665;SDS011;11499;49.486;11.104;2023-03-01T15:21:48;11.27;;;8.50;;
22665;SDS011;11499;49.486;11.104;2023-03-01T15:24:20;9.70;;;7.60;;
22665;SDS011;11499;49.486;11.104;2023-03-01T15:29:20;9.47;;;7.60;;
22665;SDS011;11499;49.486;11.104;2023-03-01T15:31:55;8.60;;;7.20;;
22665;SDS011;11499;49.486;11.104;2023-03-01T15:34:35;7.43;;;6.57;;
22665;SDS011;11499;49.486;11.104;2023-03-01T15:37:02;8.90;;;7.20;;
22665;SDS011;11499;49.486;11.104;2023-03-01T15:42:48;9.17;;;7.37;;
22665;SDS011;11499;49.486;11.104;2023-03-01T15:47:46;9.30;;;8.00;;
22665;SDS011;11499;49.486;11.104;2023-03-01T15:50:19;9.13;;;7.17;;
22665;SDS011;11499;49.486;11.104;2023-03-01T15:52:53;9.90;;;7.47;;
22665;SDS011;11499;49.486;11.104;2023-03-01T15:55:23;11.00;;;7.73;;
22665;SDS011;11499;49.486;11.104;2023-03-01T16:00:50;8.60;;;7.03;;
22665;SDS011;11499;49.486;11.104;2023-03-01T16:03:20;7.70;;;6.80;;
22665;SDS011;11499;49.486;11.104;2023-03-01T16:08:39;8.43;;;6.97;;
22665;SDS011;11499;49.486;11.104;2023-03-01T16:11:05;9.07;;;7.40;;
22665;SDS011;11499;49.486;11.104;2023-03-01T16:13:38;7.97;;;7.13;;
22665;SDS011;11499;49.486;11.104;2023-03-01T16:16:04;9.67;;;7.87;;
22665;SDS011;11499;49.486;11.104;2023-03-01T16:18:29;8.97;;;7.37;;
22665;SDS011;11499;49.486;11.104;2023-03-01T16:20:55;9.03;;;7.80;;
22665;SDS011;11499;49.486;11.104;2023-03-01T16:23:20;8.87;;;7.73;;
22665;SDS011;11499;49.486;11.104;2023-03-01T16:25:49;11.90;;;7.97;;
22665;SDS011;11499;49.486;11.104;2023-03-01T16:28:15;9.67;;;7.27;;
22665;SDS011;11499;49.486;11.104;2023-03-01T16:30:44;10.70;;;8.10;;
22665;SDS011;11499;49.486;11.104;2023-03-01T16:33:12;10.20;;;7.43;;
22665;SDS011;11499;49.486;11.104;2023-03-01T16:35:39;7.97;;;6.87;;
22665;SDS011;11499;49.486;11.104;2023-03-01T16:40:23;9.80;;;7.33;;
22665;SDS011;11499;49.486;11.104;2023-03-01T16:42:51;8.43;;;6.87;;
22665;SDS011;11499;49.486;11.104;2023-03-01T16:45:18;9.70;;;7.83;;
22665;SDS011;11499;49.486;11.104;2023-03-01T16:47:44;9.97;;;7.60;;
22665;SDS011;11499;49.486;11.104;2023-03-01T16:50:10;10.03;;;8.43;;
22665;SDS011;11499;49.486;11.104;2023-03-01T16:52:36;10.13;;;7.77;;
22665;SDS011;11499;49.486;11.104;2023-03-01T16:55:02;9.93;;;7.43;;
22665;SDS011;11499;49.486;11.104;2023-03-01T16:57:29;8.80;;;7.47;;
22665;SDS011;11499;49.486;11.104;2023-03-01T16:59:55;10.83;;;8.03;;
22665;SDS011;11499;49.486;11.104;2023-03-01T17:02:20;9.43;;;7.77;;
22665;SDS011;11499;49.486;11.104;2023-03-01T17:07:24;11.47;;;8.20;;
22665;SDS011;11499;49.486;11.104;2023-03-01T17:09:49;10.87;;;9.07;;
22665;SDS011;11499;49.486;11.104;2023-03-01T17:12:15;11.50;;;9.97;;
22665;SDS011;11499;49.486;11.104;2023-03-01T17:14:41;13.20;;;11.37;;
22665;SDS011;11499;49.486;11.104;2023-03-01T17:17:08;12.17;;;8.67;;
22665;SDS011;11499;49.486;11.104;2023-03-01T17:19:34;13.37;;;8.00;;
22665;SDS011;11499;49.486;11.104;2023-03-01T17:22:00;10.80;;;8.30;;
22665;SDS011;11499;49.486;11.104;2023-03-01T17:24:27;10.73;;;8.63;;
22665;SDS011;11499;49.486;11.104;2023-03-01T17:26:54;10.83;;;8.43;;
22665;SDS011;11499;49.486;11.104;2023-03-01T17:29:19;11.07;;;9.13;;
22665;SDS011;11499;49.486;11.104;2023-03-01T17:34:18;11.80;;;10.03;;
22665;SDS011;11499;49.486;11.104;2023-03-01T17:36:44;12.80;;;10.80;;
22665;SDS011;11499;49.486;11.104;2023-03-01T17:39:10;12.87;;;9.93;;
22665;SDS011;11499;49.486;11.104;2023-03-01T17:41:36;12.37;;;10.67;;